« 美ら島エアーフェスタ2017【初日1】 那覇空港 2017/12/9 sat | トップページ | 美ら島エアーフェスタ2017【初日2】 那覇空港 2017/12/9 sat »

2017/12/16

出立 中部国際空港 2017/12/8 fri

名古屋飛行場から中部国際空港へ。

20171208_rjgg_00airasia

今年もエア・アジアのツリーがお出迎え。ようやく国内定期便も就航して、今後も動向を注視したい存在です。

RJGG 080500Z 05003KT 360V100 9999 SCT018 BKN070 07/04 Q1008 NOSIG

20171208_rjgg_01b50008

TTW207 RJGG-RCTP B-50008 A320-232

20171208_rjgg_02rjgg

デッキの案内板も新しくなっていました。これはボーイング787の解説。

20171208_rjgg_03b6742

CCA406 RJGG-ZSPD B-6742 A321-232

20171208_rjgg_04blca

HEX1584 VHHH-RJGG B-LCA A320-232

20171208_rjgg_05za001

ZA001 は、まだこの位置。まもなく移動の模様です。

20171208_rjgg_06ja809x

SNJ70 ROAH-RJGG JA809X B737-86N

20171208_rjgg_07a6bli

ETD888 ZBAA-RJGG A6-BLI B787-9

20171208_rjgg_08a6bli

SKYTRACKのFIVESTARマークが目を引きます

20171208_rjgg_09hl7705

KAL753 RKPK-RJGG HL7705 B737-9B5

20171208_rjgg_10ja13rj

最近はすっかり利用しない橙

20171208_rjgg_11ja13rj

IBX50 RJFF-RJGG JA13RJ CRJ-702ER

RJGG 080530Z 06004KT 040V100 9999 FEW018 BKN090 08/04 Q1008 NOSIG

20171208_rjgg_12ja21jj

JJP183 RJGG-RJCC JA21JJ A320-232

20171208_rjgg_13hl8087

JJA1602 RKSI-RJGG HL8087 B737-8AS

20171208_rjgg_14ja841a

ANA1825 RJGG-RJOM JA841A DHC8-402Q

20171208_rjgg_15b1609

CES719 ZSPD-RJGG B-1609 A320-214

20171208_rjgg_16ja356k

ANA340 RJGG-RJAA JA356K B737-54K

20171208_rjgg_17ja333j

JAL3084 RJGG-RJAA JA333J B737-846

20171208_rjgg_18ja05rk

JTA47 RJGG-ROAH JA05RK B737-8Q3

沖縄で待ってるよ・・・

20171208_rjgg_19dep

さて、そろそろゲートへ 本日の乗便は、SKY557

RJGG 080600Z 11003KT 070V140 9999 FEW018 BKN090 08/05 Q1007 BECMG 30005KT

20171208_rjgg_20ja15an

ADO135 RJGG-RJCC JA15AN B737-781

機内から夕焼けが幻想的に

20171208_rjgg_21sky577

RW36から・・

20171208_rjgg_22sky577

夕陽を追いかけますが、追いつけません。そりゃ、そうだ。

20171208_rjgg_23skynes

スカイマークとネスカフェコラボのサービス コーヒーとスカイマークキットカット

20171208_rjgg_24kadena

すっかり陽が落ちて、ようやく沖縄本島です。真ん中の暗い所が嘉手納飛行場。

20171208_rjgg_25sky577

ファイナル

20171208_rjgg_26ja73ny

SKY557 RJGG-ROAH JA73NY B737-86N

初スカイマークでした。キャンペーンで無料でコーヒーがいただけたので、大手とほとんど差が無いと感じました。機体がNGなので、室内照明がLEDで、少し眩しかったかな。この後は宿に入って、那覇の夜に繰り出します。

ROAH 080800Z 36022KT 9999 BKN040 BKN100 17/07 Q1017 RMK 5SC040 7AC100 A3005

|

« 美ら島エアーフェスタ2017【初日1】 那覇空港 2017/12/9 sat | トップページ | 美ら島エアーフェスタ2017【初日2】 那覇空港 2017/12/9 sat »

那覇空港」カテゴリの記事

中部国際空港」カテゴリの記事

空撮」カテゴリの記事

コメント

コメントを書く



(ウェブ上には掲載しません)


コメントは記事投稿者が公開するまで表示されません。



トラックバック


この記事へのトラックバック一覧です: 出立 中部国際空港 2017/12/8 fri:

« 美ら島エアーフェスタ2017【初日1】 那覇空港 2017/12/9 sat | トップページ | 美ら島エアーフェスタ2017【初日2】 那覇空港 2017/12/9 sat »